createdAt,value
2023-04-20T00:02:45.449Z,12.55
2023-04-20T00:05:13.869Z,13.20
2023-04-20T00:07:41.921Z,12.48
2023-04-20T00:10:48.328Z,18.83
2023-04-20T00:14:01.178Z,13.43
2023-04-20T00:21:17.128Z,12.95
2023-04-20T00:23:48.187Z,10.43
2023-04-20T00:27:12.613Z,20.63
2023-04-20T00:38:16.933Z,17.08
2023-04-20T00:44:35.014Z,18.02
2023-04-20T00:48:02.630Z,11.20
2023-04-20T00:53:27.309Z,14.85
2023-04-20T01:03:38.367Z,24.95
2023-04-20T01:09:57.837Z,24.30
2023-04-20T01:12:47.425Z,19.17
2023-04-20T01:15:29.737Z,27.42
2023-04-20T01:21:28.581Z,19.73
2023-04-20T01:27:42.075Z,19.45
2023-04-20T01:30:28.696Z,18.60
2023-04-20T01:33:38.431Z,27.88
2023-04-20T01:36:27.125Z,23.52
2023-04-20T01:42:34.867Z,22.23
2023-04-20T01:45:30.314Z,20.27
2023-04-20T01:48:15.398Z,26.67
2023-04-20T01:50:57.283Z,15.32
2023-04-20T01:56:48.339Z,21.08
2023-04-20T01:59:19.760Z,25.33
2023-04-20T02:02:55.498Z,20.88
2023-04-20T02:06:14.823Z,22.13
2023-04-20T02:12:49.206Z,20.63
2023-04-20T02:16:12.239Z,17.75
2023-04-20T02:26:38.208Z,22.08
2023-04-20T02:29:46.514Z,23.00
2023-04-20T02:36:02.915Z,24.38
2023-04-20T02:42:22.656Z,29.25
2023-04-20T02:46:05.121Z,20.13
2023-04-20T02:52:06.613Z,26.27
2023-04-20T02:57:56.191Z,20.83
2023-04-20T03:00:29.845Z,20.52
2023-04-20T03:07:27.691Z,19.10
2023-04-20T03:13:42.071Z,21.60
2023-04-20T03:19:34.255Z,20.95
2023-04-20T03:36:32.026Z,20.52
2023-04-20T03:39:02.550Z,28.08
2023-04-20T03:41:31.425Z,21.33
2023-04-20T03:44:22.778Z,28.67
2023-04-20T03:46:50.240Z,21.95
2023-04-20T03:49:17.908Z,23.42
2023-04-20T03:51:54.423Z,22.60
2023-04-20T03:54:21.846Z,22.30
2023-04-20T03:56:50.924Z,19.40
2023-04-20T04:03:56.672Z,22.48
2023-04-20T04:06:50.211Z,23.52
2023-04-20T04:09:17.777Z,29.30
2023-04-20T04:11:45.459Z,21.38
2023-04-20T04:14:12.792Z,16.88
2023-04-20T04:16:40.235Z,36.60
2023-04-20T04:23:23.786Z,23.67
2023-04-20T04:25:51.343Z,33.22
2023-04-20T04:28:18.739Z,28.60
2023-04-20T04:30:47.486Z,20.40
2023-04-20T04:33:15.073Z,23.10
2023-04-20T04:35:44.052Z,27.75
2023-04-20T04:38:14.165Z,25.20
2023-04-20T04:40:42.046Z,20.42
2023-04-20T04:43:12.190Z,20.60
2023-04-20T04:45:43.062Z,23.95
2023-04-20T04:48:12.473Z,20.73
2023-04-20T04:50:40.738Z,25.35
2023-04-20T04:53:08.359Z,22.92
2023-04-20T04:55:35.903Z,20.95
2023-04-20T04:58:29.263Z,30.23
2023-04-20T05:00:56.755Z,19.55
2023-04-20T05:03:34.040Z,25.08
2023-04-20T05:31:29.578Z,18.58
2023-04-20T05:33:57.182Z,25.20
2023-04-20T05:36:24.752Z,20.13
2023-04-20T05:38:52.146Z,21.63
2023-04-20T05:41:19.943Z,21.88
2023-04-20T05:43:47.242Z,22.13
2023-04-20T05:46:14.610Z,25.00
2023-04-20T05:48:41.960Z,22.83
2023-04-20T05:51:09.314Z,26.98
2023-04-20T05:53:36.668Z,15.48
2023-04-20T05:56:04.417Z,32.33
2023-04-20T05:58:33.768Z,23.48
2023-04-20T06:01:03.275Z,21.17
2023-04-20T06:03:31.302Z,22.88
2023-04-20T06:05:59.148Z,19.40
2023-04-20T06:08:26.807Z,21.67
2023-04-20T06:10:56.132Z,29.63
2023-04-20T06:13:23.596Z,17.98
2023-04-20T06:15:52.925Z,23.60
2023-04-20T06:18:20.523Z,17.88
2023-04-20T06:20:47.960Z,22.77
2023-04-20T06:23:15.881Z,16.80
2023-04-20T06:25:44.111Z,15.65
2023-04-20T06:28:11.562Z,16.02
2023-04-20T06:30:39.096Z,19.65
2023-04-20T06:33:06.746Z,21.60
2023-04-20T06:35:34.234Z,17.10
2023-04-20T06:38:02.797Z,19.35
2023-04-20T06:40:30.457Z,17.65
2023-04-20T06:42:57.972Z,18.88
2023-04-20T06:45:25.318Z,18.00
2023-04-20T06:47:52.647Z,23.73
2023-04-20T06:50:20.144Z,23.10
2023-04-20T06:52:48.382Z,24.42
2023-04-20T06:55:15.975Z,17.80
2023-04-20T06:57:43.992Z,21.30
2023-04-20T07:00:12.469Z,17.98
2023-04-20T07:02:50.704Z,15.60
2023-04-20T07:05:21.456Z,17.70
2023-04-20T07:07:49.076Z,22.02
2023-04-20T07:10:16.499Z,25.35
2023-04-20T07:12:44.478Z,21.88
2023-04-20T07:15:12.780Z,19.08
2023-04-20T07:17:40.508Z,29.70
2023-04-20T07:20:08.808Z,22.60
2023-04-20T07:22:37.394Z,25.55
2023-04-20T07:25:06.745Z,27.90
2023-04-20T07:27:40.406Z,30.05
2023-04-20T07:30:09.108Z,19.00
2023-04-20T07:32:37.390Z,18.55
2023-04-20T07:35:05.394Z,25.58
2023-04-20T07:37:34.388Z,22.27
2023-04-20T07:40:02.321Z,24.77
2023-04-20T07:42:29.890Z,22.05
2023-04-20T07:44:57.415Z,19.70
2023-04-20T07:47:27.101Z,21.00
2023-04-20T07:49:57.916Z,18.30
2023-04-20T07:52:26.040Z,15.77
2023-04-20T07:54:59.825Z,16.58
2023-04-20T07:57:28.365Z,13.25
2023-04-20T07:59:55.725Z,19.52
2023-04-20T08:02:23.348Z,18.00
2023-04-20T08:04:51.095Z,19.77
2023-04-20T08:07:18.954Z,14.98
2023-04-20T08:09:46.398Z,16.60
2023-04-20T08:12:13.686Z,15.73
2023-04-20T08:14:41.420Z,16.10
2023-04-20T08:17:08.818Z,12.30
2023-04-20T08:19:36.553Z,17.00
2023-04-20T08:22:05.254Z,16.73
2023-04-20T08:24:32.664Z,13.27
2023-04-20T08:27:00.122Z,16.27
2023-04-20T08:29:27.474Z,11.20
2023-04-20T08:31:54.975Z,12.65
2023-04-20T08:34:22.435Z,11.40
2023-04-20T08:36:49.969Z,10.38
2023-04-20T08:39:21.839Z,9.43
2023-04-20T08:41:53.970Z,21.00
2023-04-20T08:44:21.991Z,10.20
2023-04-20T08:46:52.859Z,8.63
2023-04-20T08:49:23.746Z,7.55
2023-04-20T08:51:54.366Z,9.40
2023-04-20T08:54:23.120Z,9.90
2023-04-20T08:56:52.183Z,4.30
2023-04-20T08:59:19.590Z,11.88
2023-04-20T09:01:47.605Z,12.63
2023-04-20T09:04:20.895Z,5.75
2023-04-20T09:06:58.289Z,8.23
2023-04-20T09:09:31.753Z,11.02
2023-04-20T09:12:09.048Z,4.65
2023-04-20T09:14:47.562Z,5.28
2023-04-20T09:17:17.871Z,12.75
2023-04-20T09:19:46.720Z,13.05
2023-04-20T09:22:14.341Z,16.45
2023-04-20T09:24:42.764Z,7.38
2023-04-20T09:27:17.797Z,12.50
2023-04-20T09:29:56.000Z,10.80
2023-04-20T09:32:24.745Z,5.20
2023-04-20T09:34:54.539Z,4.68
2023-04-20T09:37:22.948Z,8.63
2023-04-20T09:39:50.629Z,9.35
2023-04-20T09:42:18.708Z,10.20
2023-04-20T09:44:46.635Z,12.30
2023-04-20T09:47:21.342Z,8.70
2023-04-20T09:49:49.232Z,13.90
2023-04-20T09:52:18.655Z,5.57
2023-04-20T09:54:46.360Z,7.78
2023-04-20T09:57:14.715Z,8.73
2023-04-20T09:59:47.279Z,10.25
2023-04-20T10:02:15.069Z,9.13
2023-04-20T10:05:11.991Z,11.60
2023-04-20T10:07:39.349Z,10.48
2023-04-20T10:10:17.047Z,11.98
2023-04-20T10:12:48.369Z,9.50
2023-04-20T10:15:15.763Z,16.17
2023-04-20T10:17:43.607Z,8.52
2023-04-20T10:20:28.167Z,5.97
2023-04-20T10:23:14.536Z,7.32
2023-04-20T10:25:42.568Z,9.45
2023-04-20T10:28:10.960Z,5.55
2023-04-20T10:30:49.619Z,11.82
2023-04-20T10:33:18.333Z,7.43
2023-04-20T10:35:48.614Z,6.63
2023-04-20T10:38:16.936Z,7.82
2023-04-20T10:40:44.341Z,4.47
2023-04-20T10:43:22.391Z,5.13
2023-04-20T10:45:50.567Z,7.72
2023-04-20T10:48:18.979Z,6.43
2023-04-20T10:50:46.400Z,10.80
2023-04-20T10:53:22.135Z,10.27
2023-04-20T10:56:00.174Z,11.65
2023-04-20T10:58:27.962Z,5.70
2023-04-20T11:01:02.791Z,4.50
2023-04-20T11:03:32.071Z,19.13
2023-04-20T11:06:01.759Z,6.90
2023-04-20T11:08:43.635Z,11.60
2023-04-20T11:11:19.951Z,5.05
2023-04-20T11:13:48.454Z,7.57
2023-04-20T11:16:17.202Z,7.65
2023-04-20T11:18:55.712Z,9.48
2023-04-20T11:21:23.399Z,12.63
2023-04-20T11:23:51.267Z,7.93
2023-04-20T11:26:21.908Z,10.30
2023-04-20T11:28:56.427Z,7.55
2023-04-20T11:31:24.288Z,7.93
2023-04-20T11:33:51.728Z,10.77
2023-04-20T11:36:23.653Z,8.68
2023-04-20T11:38:51.496Z,6.65
2023-04-20T11:41:18.993Z,4.00
2023-04-20T11:43:46.817Z,8.07
2023-04-20T11:46:18.857Z,32.78
2023-04-20T11:48:47.679Z,123.15
2023-04-20T11:51:15.308Z,21.38
2023-04-20T11:53:42.695Z,5.32
2023-04-20T11:56:10.049Z,9.38
2023-04-20T11:58:37.892Z,7.03
2023-04-20T12:01:05.686Z,2.30
2023-04-20T12:03:33.397Z,7.07
2023-04-20T12:06:00.978Z,5.13
2023-04-20T12:08:28.384Z,2.55
2023-04-20T12:10:57.960Z,13.40
2023-04-20T12:13:25.911Z,5.45
2023-04-20T12:15:53.307Z,7.07
2023-04-20T12:18:20.932Z,6.50
2023-04-20T12:20:50.157Z,5.25
2023-04-20T12:23:17.507Z,13.30
2023-04-20T12:25:44.958Z,11.45
2023-04-20T12:28:12.291Z,6.30
2023-04-20T12:30:39.605Z,8.63
2023-04-20T12:33:06.991Z,6.40
2023-04-20T12:35:34.451Z,8.40
2023-04-20T12:38:01.761Z,9.35
2023-04-20T12:40:29.073Z,4.13
2023-04-20T12:42:56.414Z,4.72
2023-04-20T12:45:24.214Z,7.80
2023-04-20T12:47:56.189Z,5.72
2023-04-20T12:50:25.580Z,10.70
2023-04-20T12:52:53.148Z,4.05
2023-04-20T12:55:20.546Z,7.50
2023-04-20T12:57:47.917Z,11.80
2023-04-20T13:00:16.217Z,4.72
2023-04-20T13:02:43.773Z,6.15
2023-04-20T13:05:11.590Z,3.88
2023-04-20T13:07:39.043Z,6.32
2023-04-20T13:10:07.897Z,4.57
2023-04-20T13:12:35.193Z,7.18
2023-04-20T13:15:03.107Z,3.10
2023-04-20T13:17:31.048Z,4.68
2023-04-20T13:19:59.824Z,2.22
2023-04-20T13:22:27.121Z,4.65
2023-04-20T13:24:54.429Z,10.48
2023-04-20T13:27:21.777Z,7.20
2023-04-20T13:29:49.050Z,7.93
2023-04-20T13:32:16.709Z,5.22
2023-04-20T13:34:44.443Z,7.45
2023-04-20T13:37:12.229Z,5.20
2023-04-20T13:39:39.818Z,8.57
2023-04-20T13:42:07.171Z,5.22
2023-04-20T13:44:35.470Z,7.82
2023-04-20T13:47:03.283Z,6.53
2023-04-20T13:49:30.670Z,6.15
2023-04-20T13:51:58.649Z,6.53
2023-04-20T13:54:26.228Z,9.98
2023-04-20T13:56:53.607Z,7.05
2023-04-20T13:59:21.056Z,8.23
2023-04-20T14:01:48.385Z,9.32
2023-04-20T14:04:17.056Z,13.52
2023-04-20T14:06:44.696Z,14.60
2023-04-20T14:09:12.891Z,14.32
2023-04-20T14:11:40.318Z,10.35
2023-04-20T14:14:07.675Z,8.10
2023-04-20T14:16:46.598Z,12.93
2023-04-20T14:19:15.459Z,11.07
2023-04-20T14:21:44.560Z,8.45
2023-04-20T14:24:12.582Z,7.32
2023-04-20T14:26:40.358Z,10.95
2023-04-20T14:29:07.941Z,6.05
2023-04-20T14:31:35.582Z,12.32
2023-04-20T14:34:03.365Z,7.57
2023-04-20T14:36:30.907Z,7.80
2023-04-20T14:38:58.160Z,9.25
2023-04-20T14:41:25.701Z,12.00
2023-04-20T14:43:53.022Z,7.57
2023-04-20T14:46:20.409Z,9.98
2023-04-20T14:48:48.394Z,9.95
2023-04-20T14:51:16.299Z,9.63
2023-04-20T14:53:43.642Z,7.57
2023-04-20T14:56:11.009Z,8.98
2023-04-20T14:58:38.717Z,11.40
2023-04-20T15:01:06.054Z,16.75
2023-04-20T15:03:33.487Z,9.68
2023-04-20T15:06:02.357Z,15.32
2023-04-20T15:08:29.737Z,12.95
2023-04-20T15:10:57.445Z,12.13
2023-04-20T15:13:25.769Z,10.63
2023-04-20T15:15:57.044Z,24.58
2023-04-20T15:18:24.503Z,15.88
2023-04-20T15:20:54.865Z,18.25
2023-04-20T15:23:22.260Z,14.45
2023-04-20T15:25:49.799Z,13.55
2023-04-20T15:28:17.178Z,25.42
2023-04-20T15:30:44.692Z,13.88
2023-04-20T15:33:12.967Z,21.73
2023-04-20T15:35:40.527Z,19.08
2023-04-20T15:38:07.827Z,14.55
2023-04-20T15:40:35.360Z,12.02
2023-04-20T15:43:03.629Z,24.15
2023-04-20T15:45:31.407Z,21.75
2023-04-20T15:47:59.650Z,17.35
2023-04-20T15:50:27.297Z,21.73
2023-04-20T15:52:54.821Z,19.85
2023-04-20T15:55:22.384Z,16.90
2023-04-20T15:57:49.737Z,22.15
2023-04-20T16:12:43.868Z,15.70
2023-04-20T16:15:21.391Z,10.70
2023-04-20T16:18:02.241Z,14.38
2023-04-20T16:23:53.934Z,24.92
2023-04-20T16:26:21.758Z,14.55
2023-04-20T16:28:49.237Z,12.40
2023-04-20T16:31:16.795Z,16.02
2023-04-20T16:33:44.444Z,13.57
2023-04-20T16:36:12.423Z,13.40
2023-04-20T16:38:39.874Z,21.08
2023-04-20T16:41:07.205Z,12.57
2023-04-20T17:04:02.026Z,15.15
2023-04-20T17:06:29.610Z,12.18
2023-04-20T17:09:01.456Z,12.70
2023-04-20T17:11:28.928Z,13.63
2023-04-20T17:13:56.361Z,28.33
2023-04-20T17:16:23.702Z,15.00
2023-04-20T17:18:52.536Z,13.25
2023-04-20T17:21:19.912Z,8.73
2023-04-20T17:23:47.421Z,8.85
2023-04-20T17:26:14.786Z,9.98
2023-04-20T17:28:42.151Z,9.30
2023-04-20T17:31:10.307Z,9.65
2023-04-20T17:39:43.236Z,10.52
2023-04-20T17:42:10.985Z,12.70
2023-04-20T17:44:38.959Z,13.10
2023-04-20T17:47:07.522Z,14.23
2023-04-20T17:49:36.534Z,15.52
2023-04-20T17:52:04.032Z,8.93
2023-04-20T17:54:34.299Z,15.32
2023-04-20T17:57:01.807Z,10.27
2023-04-20T17:59:30.834Z,10.80
2023-04-20T18:01:58.773Z,13.05
2023-04-20T18:04:26.709Z,10.20
2023-04-20T18:06:54.522Z,11.38
2023-04-20T18:09:21.880Z,9.20
2023-04-20T18:11:49.372Z,13.13
2023-04-20T18:14:16.914Z,22.15
2023-04-20T18:16:44.371Z,15.85
2023-04-20T18:19:11.770Z,13.05
2023-04-20T18:21:39.060Z,14.68
2023-04-20T18:24:07.450Z,14.48
2023-04-20T18:26:34.851Z,13.38
2023-04-20T18:29:02.107Z,17.95
2023-04-20T18:31:30.615Z,18.08
2023-04-20T18:33:58.007Z,11.48
2023-04-20T18:36:25.340Z,14.07
2023-04-20T18:39:17.674Z,14.82
2023-04-20T18:41:47.747Z,13.68
2023-04-20T18:44:15.415Z,16.67
2023-04-20T18:46:42.858Z,17.40
2023-04-20T18:50:40.172Z,16.95
2023-04-20T19:01:08.330Z,12.25
2023-04-20T19:04:20.004Z,18.42
2023-04-20T19:11:31.518Z,14.98
2023-04-20T19:14:10.157Z,11.73
2023-04-20T19:16:37.754Z,20.25
2023-04-20T19:19:05.390Z,19.60
2023-04-20T19:21:32.831Z,20.00
2023-04-20T19:24:00.273Z,19.08
2023-04-20T19:26:27.770Z,16.73
2023-04-20T19:28:56.463Z,20.77
2023-04-20T19:31:23.909Z,14.90
2023-04-20T19:33:51.250Z,14.82
2023-04-20T19:36:19.594Z,18.83
2023-04-20T19:38:47.127Z,13.82
2023-04-20T19:41:14.427Z,14.98
2023-04-20T19:43:41.757Z,13.73
2023-04-20T19:46:09.942Z,14.75
2023-04-20T19:48:37.332Z,26.85
2023-04-20T19:51:05.981Z,20.33
2023-04-20T19:53:34.219Z,25.33
2023-04-20T19:56:02.339Z,14.63
2023-04-20T19:58:30.840Z,21.13
2023-04-20T20:00:59.542Z,33.75
2023-04-20T20:03:27.504Z,33.45
2023-04-20T20:05:54.950Z,19.55
2023-04-20T20:08:22.311Z,25.38
2023-04-20T20:10:49.691Z,19.80
2023-04-20T20:13:17.092Z,19.25
2023-04-20T20:15:44.651Z,22.00
2023-04-20T20:18:12.500Z,25.05
2023-04-20T20:20:40.058Z,21.25
2023-04-20T20:23:07.864Z,20.52
2023-04-20T20:25:35.446Z,18.45
2023-04-20T20:28:02.864Z,16.95
2023-04-20T20:30:30.475Z,15.70
2023-04-20T20:33:01.157Z,14.43
2023-04-20T20:35:33.352Z,37.08
2023-04-20T20:38:00.743Z,28.25
2023-04-20T20:40:28.061Z,27.25
2023-04-20T20:42:55.425Z,22.58
2023-04-20T20:45:23.456Z,17.10
2023-04-20T20:47:50.974Z,25.27
2023-04-20T20:50:19.180Z,19.00
2023-04-20T20:52:46.583Z,17.83
2023-04-20T20:55:14.057Z,24.38
2023-04-20T20:57:41.812Z,19.30
2023-04-20T21:00:10.620Z,17.80
2023-04-20T21:02:38.125Z,20.70
2023-04-20T21:05:09.276Z,21.17
2023-04-20T21:07:36.755Z,22.40
2023-04-20T21:10:04.386Z,23.05
2023-04-20T21:12:31.832Z,20.20
2023-04-20T21:14:59.197Z,28.85
2023-04-20T21:17:27.215Z,20.67
2023-04-20T21:19:54.762Z,17.15
2023-04-20T21:22:22.659Z,21.92
2023-04-20T21:24:50.356Z,28.10
2023-04-20T21:36:53.222Z,22.60
2023-04-20T21:45:08.045Z,23.25
2023-04-20T21:47:35.403Z,29.02
2023-04-20T21:50:03.420Z,38.42
2023-04-20T21:52:31.296Z,24.63
2023-04-20T21:54:58.634Z,20.60
2023-04-20T21:57:26.009Z,23.77
2023-04-20T21:59:53.494Z,26.40
2023-04-20T22:02:20.943Z,26.83
2023-04-20T22:04:49.126Z,26.75
2023-04-20T22:07:17.670Z,27.50
2023-04-20T22:09:45.056Z,29.05
2023-04-20T22:12:12.486Z,32.15
2023-04-20T22:14:39.777Z,31.77
2023-04-20T22:17:09.607Z,28.75
2023-04-20T22:19:37.022Z,26.55
2023-04-20T22:22:04.289Z,29.15
2023-04-20T22:24:31.642Z,30.27
2023-04-20T22:26:59.176Z,36.65
2023-04-20T22:29:26.458Z,28.65
2023-04-20T22:31:54.523Z,34.00
2023-04-20T22:34:21.838Z,30.50
2023-04-20T22:36:49.190Z,26.75
2023-04-20T22:39:16.681Z,29.48
2023-04-20T22:41:44.193Z,32.15
2023-04-20T22:44:11.585Z,33.95
2023-04-20T22:46:38.961Z,36.85
2023-04-20T22:49:06.611Z,27.15
2023-04-20T22:51:34.052Z,27.25
2023-04-20T22:54:02.580Z,27.40
2023-04-20T22:56:30.054Z,31.95
2023-04-20T22:58:57.406Z,36.75
2023-04-20T23:01:24.989Z,30.98
2023-04-20T23:03:52.448Z,26.30
2023-04-20T23:06:22.054Z,32.65
2023-04-20T23:08:49.848Z,28.08
2023-04-20T23:11:17.177Z,36.10
2023-04-20T23:13:46.787Z,31.48
2023-04-20T23:16:14.265Z,35.03
2023-04-20T23:18:41.590Z,35.38
2023-04-20T23:21:08.996Z,25.13
2023-04-20T23:23:36.292Z,36.97
2023-04-20T23:26:03.878Z,36.85
2023-04-20T23:28:31.291Z,30.70
2023-04-20T23:30:58.623Z,43.38
2023-04-20T23:33:25.994Z,35.35
2023-04-20T23:35:53.241Z,30.13
2023-04-20T23:38:20.564Z,38.90
2023-04-20T23:40:47.866Z,43.97
2023-04-20T23:43:15.339Z,38.63
2023-04-20T23:45:42.747Z,32.40
2023-04-20T23:48:10.132Z,32.60
2023-04-20T23:50:38.815Z,32.10
2023-04-20T23:53:07.528Z,32.38
2023-04-20T23:55:34.837Z,31.48
2023-04-20T23:58:02.127Z,37.72
